sensor_id;sensor_type;location;lat;lon;timestamp;pressure;altitude;pressure_sealevel;temperature
11926;BMP180;6022;48.768;18.608;2023-07-16T00:00:37;98285.13;;;21.68
11926;BMP180;6022;48.768;18.608;2023-07-16T00:03:04;98277.56;;;21.67
11926;BMP180;6022;48.768;18.608;2023-07-16T00:05:41;98284.34;;;21.68
11926;BMP180;6022;48.768;18.608;2023-07-16T00:08:10;98278.53;;;21.66
11926;BMP180;6022;48.768;18.608;2023-07-16T00:10:37;98267.22;;;21.67
11926;BMP180;6022;48.768;18.608;2023-07-16T00:13:04;98276.28;;;21.63
11926;BMP180;6022;48.768;18.608;2023-07-16T00:15:33;98272.47;;;21.51
11926;BMP180;6022;48.768;18.608;2023-07-16T00:18:00;98277.22;;;21.24
11926;BMP180;6022;48.768;18.608;2023-07-16T00:20:27;98280.91;;;21.29
11926;BMP180;6022;48.768;18.608;2023-07-16T00:22:54;98277.66;;;21.35
11926;BMP180;6022;48.768;18.608;2023-07-16T00:25:27;98271.75;;;21.19
11926;BMP180;6022;48.768;18.608;2023-07-16T00:27:57;98278.19;;;21.23
11926;BMP180;6022;48.768;18.608;2023-07-16T00:30:24;98276.25;;;21.25
11926;BMP180;6022;48.768;18.608;2023-07-16T00:32:52;98277.69;;;21.27
11926;BMP180;6022;48.768;18.608;2023-07-16T00:35:19;98283.97;;;21.33
11926;BMP180;6022;48.768;18.608;2023-07-16T00:37:46;98275.41;;;21.32
11926;BMP180;6022;48.768;18.608;2023-07-16T00:40:16;98276.91;;;21.19
11926;BMP180;6022;48.768;18.608;2023-07-16T00:42:44;98268.03;;;21.22
11926;BMP180;6022;48.768;18.608;2023-07-16T00:45:14;98266.13;;;21.16
11926;BMP180;6022;48.768;18.608;2023-07-16T00:47:43;98266.63;;;21.03
11926;BMP180;6022;48.768;18.608;2023-07-16T00:50:14;98263.88;;;21.05
11926;BMP180;6022;48.768;18.608;2023-07-16T00:52:44;98248.28;;;20.98
11926;BMP180;6022;48.768;18.608;2023-07-16T00:55:12;98258.88;;;21.11
11926;BMP180;6022;48.768;18.608;2023-07-16T00:57:46;98265.16;;;21.09
11926;BMP180;6022;48.768;18.608;2023-07-16T01:00:23;98257.75;;;21.14
11926;BMP180;6022;48.768;18.608;2023-07-16T01:02:51;98247.91;;;21.17
11926;BMP180;6022;48.768;18.608;2023-07-16T01:05:23;98255.84;;;21.08
11926;BMP180;6022;48.768;18.608;2023-07-16T01:07:59;98247.25;;;21.07
11926;BMP180;6022;48.768;18.608;2023-07-16T01:10:28;98251.16;;;21.03
11926;BMP180;6022;48.768;18.608;2023-07-16T01:12:58;98249.25;;;20.97
11926;BMP180;6022;48.768;18.608;2023-07-16T01:15:27;98251.50;;;21.00
11926;BMP180;6022;48.768;18.608;2023-07-16T01:17:54;98245.25;;;20.87
11926;BMP180;6022;48.768;18.608;2023-07-16T01:20:22;98239.63;;;20.76
11926;BMP180;6022;48.768;18.608;2023-07-16T01:23:27;98233.81;;;20.82
11926;BMP180;6022;48.768;18.608;2023-07-16T01:31:41;98231.56;;;20.71
11926;BMP180;6022;48.768;18.608;2023-07-16T01:34:10;98228.34;;;20.61
11926;BMP180;6022;48.768;18.608;2023-07-16T01:36:39;98231.09;;;20.67
11926;BMP180;6022;48.768;18.608;2023-07-16T01:39:07;98237.19;;;20.50
11926;BMP180;6022;48.768;18.608;2023-07-16T01:41:34;98230.44;;;20.65
11926;BMP180;6022;48.768;18.608;2023-07-16T01:44:01;98222.06;;;20.63
11926;BMP180;6022;48.768;18.608;2023-07-16T01:46:28;98238.16;;;20.42
11926;BMP180;6022;48.768;18.608;2023-07-16T01:48:56;98230.13;;;20.37
11926;BMP180;6022;48.768;18.608;2023-07-16T01:51:23;98233.69;;;20.20
11926;BMP180;6022;48.768;18.608;2023-07-16T01:53:51;98227.88;;;20.34
11926;BMP180;6022;48.768;18.608;2023-07-16T01:56:18;98226.91;;;20.35
11926;BMP180;6022;48.768;18.608;2023-07-16T01:58:46;98232.69;;;20.52
11926;BMP180;6022;48.768;18.608;2023-07-16T02:01:21;98231.72;;;20.53
11926;BMP180;6022;48.768;18.608;2023-07-16T02:03:52;98222.53;;;20.51
11926;BMP180;6022;48.768;18.608;2023-07-16T02:06:29;98213.38;;;20.41
11926;BMP180;6022;48.768;18.608;2023-07-16T02:09:07;98212.22;;;20.51
11926;BMP180;6022;48.768;18.608;2023-07-16T02:11:37;98221.75;;;20.27
11926;BMP180;6022;48.768;18.608;2023-07-16T02:14:05;98220.13;;;20.34
11926;BMP180;6022;48.768;18.608;2023-07-16T02:16:32;98224.66;;;20.32
11926;BMP180;6022;48.768;18.608;2023-07-16T02:18:59;98216.63;;;20.35
11926;BMP180;6022;48.768;18.608;2023-07-16T02:21:29;98223.38;;;20.20
11926;BMP180;6022;48.768;18.608;2023-07-16T02:24:06;98230.47;;;20.26
11926;BMP180;6022;48.768;18.608;2023-07-16T02:26:33;98217.72;;;20.16
11926;BMP180;6022;48.768;18.608;2023-07-16T02:29:02;98232.56;;;20.07
11926;BMP180;6022;48.768;18.608;2023-07-16T02:31:30;98220.78;;;20.12
11926;BMP180;6022;48.768;18.608;2023-07-16T02:33:58;98216.94;;;20.16
11926;BMP180;6022;48.768;18.608;2023-07-16T02:36:25;98222.88;;;20.16
11926;BMP180;6022;48.768;18.608;2023-07-16T02:38:55;98229.41;;;19.79
11926;BMP180;6022;48.768;18.608;2023-07-16T02:41:22;98235.56;;;19.86
11926;BMP180;6022;48.768;18.608;2023-07-16T02:44:00;98233.00;;;20.02
11926;BMP180;6022;48.768;18.608;2023-07-16T02:46:28;98242.66;;;20.08
11926;BMP180;6022;48.768;18.608;2023-07-16T02:49:06;98239.59;;;19.97
11926;BMP180;6022;48.768;18.608;2023-07-16T02:51:33;98230.78;;;19.99
11926;BMP180;6022;48.768;18.608;2023-07-16T02:54:09;98234.28;;;19.82
11926;BMP180;6022;48.768;18.608;2023-07-16T02:56:39;98236.22;;;19.96
11926;BMP180;6022;48.768;18.608;2023-07-16T02:59:07;98231.88;;;19.97
11926;BMP180;6022;48.768;18.608;2023-07-16T03:01:35;98244.28;;;20.01
11926;BMP180;6022;48.768;18.608;2023-07-16T03:04:03;98229.94;;;19.99
11926;BMP180;6022;48.768;18.608;2023-07-16T03:06:34;98232.34;;;19.92
11926;BMP180;6022;48.768;18.608;2023-07-16T03:09:01;98228.19;;;19.99
11926;BMP180;6022;48.768;18.608;2023-07-16T03:11:34;98233.50;;;19.98
11926;BMP180;6022;48.768;18.608;2023-07-16T03:14:01;98229.47;;;19.95
11926;BMP180;6022;48.768;18.608;2023-07-16T03:16:31;98233.00;;;20.10
11926;BMP180;6022;48.768;18.608;2023-07-16T03:18:58;98238.81;;;20.20
11926;BMP180;6022;48.768;18.608;2023-07-16T03:21:29;98235.59;;;20.42
11926;BMP180;6022;48.768;18.608;2023-07-16T03:23:59;98239.94;;;20.41
11926;BMP180;6022;48.768;18.608;2023-07-16T03:26:26;98231.06;;;20.75
11926;BMP180;6022;48.768;18.608;2023-07-16T03:28:53;98231.84;;;20.91
11926;BMP180;6022;48.768;18.608;2023-07-16T03:31:23;98238.34;;;20.80
11926;BMP180;6022;48.768;18.608;2023-07-16T03:34:01;98241.38;;;20.75
11926;BMP180;6022;48.768;18.608;2023-07-16T03:36:28;98247.03;;;20.71
11926;BMP180;6022;48.768;18.608;2023-07-16T03:38:55;98241.38;;;20.83
11926;BMP180;6022;48.768;18.608;2023-07-16T03:41:23;98238.16;;;20.73
11926;BMP180;6022;48.768;18.608;2023-07-16T03:43:52;98247.13;;;21.01
11926;BMP180;6022;48.768;18.608;2023-07-16T03:46:25;98261.34;;;20.81
11926;BMP180;6022;48.768;18.608;2023-07-16T03:48:53;98241.03;;;20.86
11926;BMP180;6022;48.768;18.608;2023-07-16T03:51:23;98250.69;;;21.00
11926;BMP180;6022;48.768;18.608;2023-07-16T03:53:54;98253.84;;;21.18
11926;BMP180;6022;48.768;18.608;2023-07-16T03:56:23;98255.78;;;21.23
11926;BMP180;6022;48.768;18.608;2023-07-16T03:58:51;98266.88;;;21.24
11926;BMP180;6022;48.768;18.608;2023-07-16T04:01:18;98262.47;;;21.48
11926;BMP180;6022;48.768;18.608;2023-07-16T04:03:45;98266.78;;;21.86
11926;BMP180;6022;48.768;18.608;2023-07-16T04:06:13;98271.00;;;21.57
11926;BMP180;6022;48.768;18.608;2023-07-16T04:08:41;98267.59;;;21.56
11926;BMP180;6022;48.768;18.608;2023-07-16T04:11:12;98268.91;;;21.52
11926;BMP180;6022;48.768;18.608;2023-07-16T04:13:39;98268.91;;;21.82
11926;BMP180;6022;48.768;18.608;2023-07-16T04:16:08;98272.78;;;22.16
11926;BMP180;6022;48.768;18.608;2023-07-16T04:18:36;98276.97;;;22.17
11926;BMP180;6022;48.768;18.608;2023-07-16T04:21:05;98280.25;;;22.34
11926;BMP180;6022;48.768;18.608;2023-07-16T04:23:32;98284.66;;;22.25
11926;BMP180;6022;48.768;18.608;2023-07-16T04:26:00;98282.13;;;22.17
11926;BMP180;6022;48.768;18.608;2023-07-16T04:28:27;98280.84;;;22.13
11926;BMP180;6022;48.768;18.608;2023-07-16T04:30:54;98285.59;;;22.02
11926;BMP180;6022;48.768;18.608;2023-07-16T04:33:21;98275.72;;;22.05
11926;BMP180;6022;48.768;18.608;2023-07-16T04:35:49;98274.09;;;22.12
11926;BMP180;6022;48.768;18.608;2023-07-16T04:38:17;98277.38;;;22.29
11926;BMP180;6022;48.768;18.608;2023-07-16T04:40:44;98284.66;;;22.47
11926;BMP180;6022;48.768;18.608;2023-07-16T04:43:11;98285.22;;;22.57
11926;BMP180;6022;48.768;18.608;2023-07-16T04:45:39;98295.63;;;22.86
11926;BMP180;6022;48.768;18.608;2023-07-16T04:48:07;98286.13;;;23.87
11926;BMP180;6022;48.768;18.608;2023-07-16T04:50:35;98286.91;;;24.64
11926;BMP180;6022;48.768;18.608;2023-07-16T04:53:06;98278.41;;;25.30
11926;BMP180;6022;48.768;18.608;2023-07-16T05:00:22;98293.25;;;27.88
11926;BMP180;6022;48.768;18.608;2023-07-16T05:02:52;98305.91;;;28.58
11926;BMP180;6022;48.768;18.608;2023-07-16T05:05:27;98295.34;;;28.78
11926;BMP180;6022;48.768;18.608;2023-07-16T05:07:58;98298.00;;;30.20
11926;BMP180;6022;48.768;18.608;2023-07-16T05:10:28;98297.88;;;30.44
11926;BMP180;6022;48.768;18.608;2023-07-16T05:12:55;98301.41;;;31.01
11926;BMP180;6022;48.768;18.608;2023-07-16T05:15:23;98295.69;;;31.50
11926;BMP180;6022;48.768;18.608;2023-07-16T05:17:53;98289.09;;;32.25
11926;BMP180;6022;48.768;18.608;2023-07-16T05:20:26;98293.84;;;32.88
11926;BMP180;6022;48.768;18.608;2023-07-16T05:22:53;98301.94;;;32.10
11926;BMP180;6022;48.768;18.608;2023-07-16T05:25:21;98291.09;;;33.32
11926;BMP180;6022;48.768;18.608;2023-07-16T05:27:57;98298.59;;;33.24
11926;BMP180;6022;48.768;18.608;2023-07-16T05:30:24;98300.78;;;33.86
11926;BMP180;6022;48.768;18.608;2023-07-16T05:32:52;98294.81;;;34.16
11926;BMP180;6022;48.768;18.608;2023-07-16T05:35:22;98292.88;;;34.33
11926;BMP180;6022;48.768;18.608;2023-07-16T05:37:54;98286.03;;;34.63
11926;BMP180;6022;48.768;18.608;2023-07-16T05:40:24;98294.50;;;34.13
11926;BMP180;6022;48.768;18.608;2023-07-16T05:42:55;98289.72;;;34.10
11926;BMP180;6022;48.768;18.608;2023-07-16T05:45:25;98290.16;;;33.38
11926;BMP180;6022;48.768;18.608;2023-07-16T05:47:56;98297.75;;;34.77
11926;BMP180;6022;48.768;18.608;2023-07-16T05:50:26;98289.28;;;34.75
11926;BMP180;6022;48.768;18.608;2023-07-16T05:52:58;98280.41;;;35.22
11926;BMP180;6022;48.768;18.608;2023-07-16T05:55:30;98289.91;;;34.82
11926;BMP180;6022;48.768;18.608;2023-07-16T05:58:05;98283.34;;;35.25
11926;BMP180;6022;48.768;18.608;2023-07-16T06:00:35;98283.69;;;36.04
11926;BMP180;6022;48.768;18.608;2023-07-16T06:03:04;98288.03;;;36.65
11926;BMP180;6022;48.768;18.608;2023-07-16T06:05:31;98277.97;;;37.01
11926;BMP180;6022;48.768;18.608;2023-07-16T06:08:09;98280.28;;;38.05
11926;BMP180;6022;48.768;18.608;2023-07-16T06:10:37;98284.06;;;38.37
11926;BMP180;6022;48.768;18.608;2023-07-16T06:13:14;98285.00;;;39.40
11926;BMP180;6022;48.768;18.608;2023-07-16T06:16:06;98280.31;;;38.81
11926;BMP180;6022;48.768;18.608;2023-07-16T06:18:51;98270.47;;;37.42
11926;BMP180;6022;48.768;18.608;2023-07-16T06:21:26;98272.53;;;37.65
11926;BMP180;6022;48.768;18.608;2023-07-16T06:24:00;98269.72;;;37.27
11926;BMP180;6022;48.768;18.608;2023-07-16T06:27:06;98266.78;;;37.39
11926;BMP180;6022;48.768;18.608;2023-07-16T06:30:18;98275.44;;;38.88
11926;BMP180;6022;48.768;18.608;2023-07-16T06:32:48;98276.88;;;38.75
11926;BMP180;6022;48.768;18.608;2023-07-16T06:35:30;98274.56;;;38.97
11926;BMP180;6022;48.768;18.608;2023-07-16T06:38:03;98277.19;;;39.02
11926;BMP180;6022;48.768;18.608;2023-07-16T06:40:34;98278.38;;;40.75
11926;BMP180;6022;48.768;18.608;2023-07-16T06:43:04;98281.81;;;40.76
11926;BMP180;6022;48.768;18.608;2023-07-16T06:45:36;98281.41;;;36.87
11926;BMP180;6022;48.768;18.608;2023-07-16T06:48:25;98283.16;;;35.37
11926;BMP180;6022;48.768;18.608;2023-07-16T06:50:59;98276.06;;;35.42
11926;BMP180;6022;48.768;18.608;2023-07-16T06:53:26;98281.19;;;36.78
11926;BMP180;6022;48.768;18.608;2023-07-16T06:56:02;98276.13;;;35.57
11926;BMP180;6022;48.768;18.608;2023-07-16T06:58:33;98290.75;;;35.28
11926;BMP180;6022;48.768;18.608;2023-07-16T07:01:22;98279.78;;;34.17
11926;BMP180;6022;48.768;18.608;2023-07-16T07:03:55;98284.81;;;35.07
11926;BMP180;6022;48.768;18.608;2023-07-16T07:06:27;98290.41;;;34.79
11926;BMP180;6022;48.768;18.608;2023-07-16T07:08:58;98282.59;;;34.32
11926;BMP180;6022;48.768;18.608;2023-07-16T07:11:28;98291.56;;;34.09
11926;BMP180;6022;48.768;18.608;2023-07-16T07:14:02;98293.69;;;35.88
11926;BMP180;6022;48.768;18.608;2023-07-16T07:16:36;98286.16;;;36.21
11926;BMP180;6022;48.768;18.608;2023-07-16T07:19:23;98293.00;;;36.22
11926;BMP180;6022;48.768;18.608;2023-07-16T07:21:52;98303.50;;;35.92
11926;BMP180;6022;48.768;18.608;2023-07-16T07:24:19;98295.28;;;35.88
11926;BMP180;6022;48.768;18.608;2023-07-16T07:27:05;98292.25;;;37.15
11926;BMP180;6022;48.768;18.608;2023-07-16T07:29:32;98287.19;;;34.46
11926;BMP180;6022;48.768;18.608;2023-07-16T07:32:00;98290.53;;;34.68
11926;BMP180;6022;48.768;18.608;2023-07-16T07:34:27;98291.09;;;36.12
11926;BMP180;6022;48.768;18.608;2023-07-16T07:36:56;98284.66;;;35.23
11926;BMP180;6022;48.768;18.608;2023-07-16T07:39:35;98285.38;;;36.99
11926;BMP180;6022;48.768;18.608;2023-07-16T07:42:09;98285.19;;;37.78
11926;BMP180;6022;48.768;18.608;2023-07-16T07:44:37;98297.69;;;39.48
11926;BMP180;6022;48.768;18.608;2023-07-16T07:47:05;98293.03;;;39.58
11926;BMP180;6022;48.768;18.608;2023-07-16T07:49:40;98296.25;;;39.32
11926;BMP180;6022;48.768;18.608;2023-07-16T07:52:10;98297.00;;;39.38
11926;BMP180;6022;48.768;18.608;2023-07-16T07:54:40;98297.97;;;39.46
11926;BMP180;6022;48.768;18.608;2023-07-16T07:57:10;98301.19;;;39.20
11926;BMP180;6022;48.768;18.608;2023-07-16T07:59:44;98305.88;;;39.51
11926;BMP180;6022;48.768;18.608;2023-07-16T08:02:14;98308.59;;;39.18
11926;BMP180;6022;48.768;18.608;2023-07-16T08:04:42;98307.78;;;38.95
11926;BMP180;6022;48.768;18.608;2023-07-16T08:07:11;98307.72;;;38.28
11926;BMP180;6022;48.768;18.608;2023-07-16T08:09:42;98307.63;;;38.76
11926;BMP180;6022;48.768;18.608;2023-07-16T08:12:09;98314.56;;;39.57
11926;BMP180;6022;48.768;18.608;2023-07-16T08:14:38;98316.09;;;39.86
11926;BMP180;6022;48.768;18.608;2023-07-16T08:17:11;98317.97;;;39.85
11926;BMP180;6022;48.768;18.608;2023-07-16T08:19:41;98310.38;;;39.97
11926;BMP180;6022;48.768;18.608;2023-07-16T08:22:15;98318.69;;;40.51
11926;BMP180;6022;48.768;18.608;2023-07-16T08:24:47;98321.41;;;40.64
11926;BMP180;6022;48.768;18.608;2023-07-16T08:27:16;98310.16;;;40.85
11926;BMP180;6022;48.768;18.608;2023-07-16T08:29:46;98315.59;;;41.38
11926;BMP180;6022;48.768;18.608;2023-07-16T08:32:14;98324.56;;;40.66
11926;BMP180;6022;48.768;18.608;2023-07-16T08:35:25;98318.94;;;40.86
11926;BMP180;6022;48.768;18.608;2023-07-16T08:37:52;98319.31;;;40.61
11926;BMP180;6022;48.768;18.608;2023-07-16T08:40:20;98316.78;;;40.69
11926;BMP180;6022;48.768;18.608;2023-07-16T08:42:49;98319.06;;;40.94
11926;BMP180;6022;48.768;18.608;2023-07-16T08:45:28;98325.94;;;40.27
11926;BMP180;6022;48.768;18.608;2023-07-16T08:48:09;98324.72;;;40.38
11926;BMP180;6022;48.768;18.608;2023-07-16T08:50:37;98334.16;;;40.80
11926;BMP180;6022;48.768;18.608;2023-07-16T08:53:06;98322.38;;;40.86
11926;BMP180;6022;48.768;18.608;2023-07-16T08:55:34;98339.75;;;39.87
11926;BMP180;6022;48.768;18.608;2023-07-16T08:58:05;98330.63;;;39.19
11926;BMP180;6022;48.768;18.608;2023-07-16T09:00:36;98323.91;;;38.27
11926;BMP180;6022;48.768;18.608;2023-07-16T09:03:14;98325.03;;;37.39
11926;BMP180;6022;48.768;18.608;2023-07-16T09:05:47;98319.81;;;36.74
11926;BMP180;6022;48.768;18.608;2023-07-16T09:08:15;98325.19;;;36.09
11926;BMP180;6022;48.768;18.608;2023-07-16T09:10:56;98317.66;;;36.66
11926;BMP180;6022;48.768;18.608;2023-07-16T09:13:24;98308.44;;;37.08
11926;BMP180;6022;48.768;18.608;2023-07-16T09:15:57;98312.38;;;36.81
11926;BMP180;6022;48.768;18.608;2023-07-16T09:18:29;98316.81;;;37.40
11926;BMP180;6022;48.768;18.608;2023-07-16T09:21:00;98320.09;;;38.43
11926;BMP180;6022;48.768;18.608;2023-07-16T09:23:34;98313.66;;;38.92
11926;BMP180;6022;48.768;18.608;2023-07-16T09:26:04;98309.81;;;39.02
11926;BMP180;6022;48.768;18.608;2023-07-16T09:28:34;98327.50;;;39.40
11926;BMP180;6022;48.768;18.608;2023-07-16T09:31:11;98324.13;;;39.35
11926;BMP180;6022;48.768;18.608;2023-07-16T09:33:39;98326.91;;;39.20
11926;BMP180;6022;48.768;18.608;2023-07-16T09:36:10;98329.31;;;39.21
11926;BMP180;6022;48.768;18.608;2023-07-16T09:38:38;98320.34;;;38.46
11926;BMP180;6022;48.768;18.608;2023-07-16T09:41:08;98320.09;;;37.90
11926;BMP180;6022;48.768;18.608;2023-07-16T09:43:39;98317.63;;;37.41
11926;BMP180;6022;48.768;18.608;2023-07-16T09:46:07;98311.81;;;37.19
11926;BMP180;6022;48.768;18.608;2023-07-16T09:48:36;98324.84;;;37.98
11926;BMP180;6022;48.768;18.608;2023-07-16T09:51:10;98328.84;;;38.76
11926;BMP180;6022;48.768;18.608;2023-07-16T09:53:44;98326.75;;;39.35
11926;BMP180;6022;48.768;18.608;2023-07-16T09:56:20;98321.09;;;38.09
11926;BMP180;6022;48.768;18.608;2023-07-16T09:59:05;98338.09;;;39.22
11926;BMP180;6022;48.768;18.608;2023-07-16T10:06:20;98329.81;;;39.75
11926;BMP180;6022;48.768;18.608;2023-07-16T10:08:52;98323.19;;;38.93
11926;BMP180;6022;48.768;18.608;2023-07-16T10:11:23;98320.78;;;37.57
11926;BMP180;6022;48.768;18.608;2023-07-16T10:13:55;98326.22;;;37.81
11926;BMP180;6022;48.768;18.608;2023-07-16T10:16:25;98321.81;;;37.56
11926;BMP180;6022;48.768;18.608;2023-07-16T10:18:58;98330.31;;;36.50
11926;BMP180;6022;48.768;18.608;2023-07-16T10:21:37;98320.13;;;35.92
11926;BMP180;6022;48.768;18.608;2023-07-16T10:24:19;98321.34;;;36.61
11926;BMP180;6022;48.768;18.608;2023-07-16T10:26:51;98332.44;;;37.51
11926;BMP180;6022;48.768;18.608;2023-07-16T10:29:22;98329.69;;;37.76
11926;BMP180;6022;48.768;18.608;2023-07-16T10:31:52;98328.88;;;38.33
11926;BMP180;6022;48.768;18.608;2023-07-16T10:34:24;98326.22;;;38.81
11926;BMP180;6022;48.768;18.608;2023-07-16T10:36:59;98328.53;;;39.16
11926;BMP180;6022;48.768;18.608;2023-07-16T10:39:29;98324.84;;;39.40
11926;BMP180;6022;48.768;18.608;2023-07-16T10:42:06;98331.41;;;39.19
11926;BMP180;6022;48.768;18.608;2023-07-16T10:44:43;98329.31;;;38.55
11926;BMP180;6022;48.768;18.608;2023-07-16T10:47:32;98329.72;;;38.72
11926;BMP180;6022;48.768;18.608;2023-07-16T10:50:08;98324.34;;;38.82
11926;BMP180;6022;48.768;18.608;2023-07-16T10:52:44;98317.13;;;38.11
11926;BMP180;6022;48.768;18.608;2023-07-16T10:55:17;98323.31;;;37.82
11926;BMP180;6022;48.768;18.608;2023-07-16T10:57:51;98329.56;;;37.13
11926;BMP180;6022;48.768;18.608;2023-07-16T11:00:26;98321.56;;;37.48
11926;BMP180;6022;48.768;18.608;2023-07-16T11:03:11;98320.63;;;37.97
11926;BMP180;6022;48.768;18.608;2023-07-16T11:05:54;98317.53;;;37.70
11926;BMP180;6022;48.768;18.608;2023-07-16T11:08:28;98295.22;;;37.81
11926;BMP180;6022;48.768;18.608;2023-07-16T11:11:29;98309.44;;;38.05
11926;BMP180;6022;48.768;18.608;2023-07-16T11:14:11;98309.66;;;37.41
11926;BMP180;6022;48.768;18.608;2023-07-16T11:16:40;98306.81;;;36.93
11926;BMP180;6022;48.768;18.608;2023-07-16T11:19:08;98307.09;;;37.06
11926;BMP180;6022;48.768;18.608;2023-07-16T11:21:37;98314.94;;;37.55
11926;BMP180;6022;48.768;18.608;2023-07-16T11:24:10;98303.97;;;38.29
11926;BMP180;6022;48.768;18.608;2023-07-16T11:26:52;98309.72;;;38.46
11926;BMP180;6022;48.768;18.608;2023-07-16T11:29:19;98297.56;;;38.45
11926;BMP180;6022;48.768;18.608;2023-07-16T11:31:52;98303.06;;;38.87
11926;BMP180;6022;48.768;18.608;2023-07-16T11:34:24;98314.19;;;38.89
11926;BMP180;6022;48.768;18.608;2023-07-16T11:36:51;98308.25;;;39.01
11926;BMP180;6022;48.768;18.608;2023-07-16T11:39:29;98306.38;;;39.02
11926;BMP180;6022;48.768;18.608;2023-07-16T11:41:58;98304.38;;;38.89
11926;BMP180;6022;48.768;18.608;2023-07-16T11:44:25;98306.22;;;39.17
11926;BMP180;6022;48.768;18.608;2023-07-16T11:46:58;98307.47;;;39.29
11926;BMP180;6022;48.768;18.608;2023-07-16T11:49:28;98301.44;;;38.91
11926;BMP180;6022;48.768;18.608;2023-07-16T11:51:58;98297.06;;;39.04
11926;BMP180;6022;48.768;18.608;2023-07-16T11:54:28;98294.19;;;39.29
11926;BMP180;6022;48.768;18.608;2023-07-16T11:56:55;98289.97;;;39.23
11926;BMP180;6022;48.768;18.608;2023-07-16T11:59:23;98287.88;;;38.59
11926;BMP180;6022;48.768;18.608;2023-07-16T12:01:51;98285.66;;;37.95
11926;BMP180;6022;48.768;18.608;2023-07-16T12:04:20;98291.16;;;38.03
11926;BMP180;6022;48.768;18.608;2023-07-16T12:06:48;98286.22;;;37.87
11926;BMP180;6022;48.768;18.608;2023-07-16T12:09:15;98290.34;;;38.08
11926;BMP180;6022;48.768;18.608;2023-07-16T12:11:45;98291.84;;;38.23
11926;BMP180;6022;48.768;18.608;2023-07-16T12:14:12;98290.38;;;38.03
11926;BMP180;6022;48.768;18.608;2023-07-16T12:16:48;98290.91;;;38.05
11926;BMP180;6022;48.768;18.608;2023-07-16T12:19:16;98287.91;;;38.16
11926;BMP180;6022;48.768;18.608;2023-07-16T12:21:44;98286.03;;;38.21
11926;BMP180;6022;48.768;18.608;2023-07-16T12:24:20;98286.38;;;38.05
11926;BMP180;6022;48.768;18.608;2023-07-16T12:26:49;98282.78;;;38.29
11926;BMP180;6022;48.768;18.608;2023-07-16T12:29:16;98282.66;;;38.54
11926;BMP180;6022;48.768;18.608;2023-07-16T12:31:46;98266.44;;;38.56
11926;BMP180;6022;48.768;18.608;2023-07-16T12:34:13;98273.84;;;38.59
11926;BMP180;6022;48.768;18.608;2023-07-16T12:36:43;98269.94;;;38.46
11926;BMP180;6022;48.768;18.608;2023-07-16T12:39:10;98267.44;;;38.26
11926;BMP180;6022;48.768;18.608;2023-07-16T12:41:41;98265.41;;;38.14
11926;BMP180;6022;48.768;18.608;2023-07-16T12:44:08;98273.34;;;38.19
11926;BMP180;6022;48.768;18.608;2023-07-16T12:46:35;98264.56;;;37.65
11926;BMP180;6022;48.768;18.608;2023-07-16T12:49:03;98266.19;;;37.61
11926;BMP180;6022;48.768;18.608;2023-07-16T12:51:31;98269.94;;;37.55
11926;BMP180;6022;48.768;18.608;2023-07-16T12:54:01;98279.81;;;37.25
11926;BMP180;6022;48.768;18.608;2023-07-16T12:56:29;98270.84;;;36.92
11926;BMP180;6022;48.768;18.608;2023-07-16T12:58:57;98275.31;;;36.57
11926;BMP180;6022;48.768;18.608;2023-07-16T13:01:29;98268.72;;;36.49
11926;BMP180;6022;48.768;18.608;2023-07-16T13:03:58;98273.22;;;36.49
11926;BMP180;6022;48.768;18.608;2023-07-16T13:06:29;98274.53;;;36.56
11926;BMP180;6022;48.768;18.608;2023-07-16T13:08:56;98278.25;;;36.70
11926;BMP180;6022;48.768;18.608;2023-07-16T13:11:26;98271.66;;;36.67
11926;BMP180;6022;48.768;18.608;2023-07-16T13:13:54;98268.97;;;36.53
11926;BMP180;6022;48.768;18.608;2023-07-16T13:16:22;98273.75;;;36.75
11926;BMP180;6022;48.768;18.608;2023-07-16T13:18:49;98274.28;;;36.87
11926;BMP180;6022;48.768;18.608;2023-07-16T13:21:16;98269.25;;;36.96
11926;BMP180;6022;48.768;18.608;2023-07-16T13:23:47;98273.22;;;36.88
11926;BMP180;6022;48.768;18.608;2023-07-16T13:26:15;98272.41;;;36.93
11926;BMP180;6022;48.768;18.608;2023-07-16T13:28:42;98278.50;;;36.88
11926;BMP180;6022;48.768;18.608;2023-07-16T13:31:12;98272.69;;;36.86
11926;BMP180;6022;48.768;18.608;2023-07-16T13:33:39;98264.25;;;36.65
11926;BMP180;6022;48.768;18.608;2023-07-16T13:36:07;98267.91;;;36.54
11926;BMP180;6022;48.768;18.608;2023-07-16T13:38:34;98274.56;;;36.66
11926;BMP180;6022;48.768;18.608;2023-07-16T13:41:01;98264.78;;;36.76
11926;BMP180;6022;48.768;18.608;2023-07-16T13:43:29;98267.91;;;36.59
11926;BMP180;6022;48.768;18.608;2023-07-16T13:45:56;98265.28;;;36.44
11926;BMP180;6022;48.768;18.608;2023-07-16T13:48:27;98262.09;;;36.22
11926;BMP180;6022;48.768;18.608;2023-07-16T13:50:57;98278.41;;;36.04
11926;BMP180;6022;48.768;18.608;2023-07-16T13:53:24;98262.84;;;36.08
11926;BMP180;6022;48.768;18.608;2023-07-16T13:55:51;98262.34;;;36.21
11926;BMP180;6022;48.768;18.608;2023-07-16T13:58:20;98263.94;;;36.22
11926;BMP180;6022;48.768;18.608;2023-07-16T14:00:47;98259.66;;;36.16
11926;BMP180;6022;48.768;18.608;2023-07-16T14:03:15;98261.53;;;36.15
11926;BMP180;6022;48.768;18.608;2023-07-16T14:05:42;98262.00;;;35.92
11926;BMP180;6022;48.768;18.608;2023-07-16T14:08:09;98253.56;;;35.90
11926;BMP180;6022;48.768;18.608;2023-07-16T14:10:37;98256.47;;;35.89
11926;BMP180;6022;48.768;18.608;2023-07-16T14:13:04;98260.66;;;35.75
11926;BMP180;6022;48.768;18.608;2023-07-16T14:15:31;98262.25;;;35.81
11926;BMP180;6022;48.768;18.608;2023-07-16T14:17:58;98270.69;;;35.78
11926;BMP180;6022;48.768;18.608;2023-07-16T14:20:26;98258.25;;;35.74
11926;BMP180;6022;48.768;18.608;2023-07-16T14:22:53;98267.94;;;35.63
11926;BMP180;6022;48.768;18.608;2023-07-16T14:25:20;98267.91;;;35.53
11926;BMP180;6022;48.768;18.608;2023-07-16T14:27:50;98264.44;;;35.38
11926;BMP180;6022;48.768;18.608;2023-07-16T14:30:17;98271.81;;;35.36
11926;BMP180;6022;48.768;18.608;2023-07-16T14:32:46;98256.50;;;35.38
11926;BMP180;6022;48.768;18.608;2023-07-16T14:35:13;98249.09;;;35.30
11926;BMP180;6022;48.768;18.608;2023-07-16T14:37:48;98260.56;;;35.14
11926;BMP180;6022;48.768;18.608;2023-07-16T14:40:15;98253.13;;;35.07
11926;BMP180;6022;48.768;18.608;2023-07-16T14:42:43;98247.63;;;35.08
11926;BMP180;6022;48.768;18.608;2023-07-16T14:45:15;98245.13;;;34.92